• Join FlightAware (Why Join?)
  • Login
  • US Flag 
09:25PM EDT


 

Airport Tracker/Info


-or-


 

Live Flight TrackerFlight Track Log ✈ CSN6840 ✈ 27-Jul-2013 ✈ ZWKC / KCA - ZWWW / URC

Flight Track Log - Related Links

Times and Time Zones

All times are in EDT time to prevent confusion due to time zone crossing. See the CSN6840 flight status page for this flight to view local times or setup timezone preferences in your user account.

Time Position Orientation Groundspeed Altitude Reporting Facility
EDT Latitude Longitude Course Direction KTS MPH feet Rate Location/Type
02:45AM 41.8260 83.1932 55° Northeast  Level Estimated
02:46AM 41.9337 83.4002 55° Northeast  Level Estimated
02:47AM 42.0409 83.6078 55° Northeast  Level Estimated
02:48AM 42.1478 83.8162 55° Northeast  Level Estimated
02:49AM 42.2542 84.0253 55° Northeast  Level Estimated
02:50AM 42.3603 84.2350 56° Northeast  Level Estimated
02:51AM 42.4660 84.4455 56° Northeast  Level Estimated
02:52AM 42.5714 84.6567 56° Northeast  Level Estimated
02:53AM 42.6763 84.8686 56° Northeast  Level Estimated
02:54AM 42.7809 85.0812 56° Northeast  Level Estimated
02:55AM 42.8850 85.2946 56° Northeast  Level Estimated
02:56AM 42.9888 85.5086 56° Northeast  Level Estimated
02:57AM 43.0922 85.7234 57° Northeast  Level Estimated
02:58AM 43.1951 85.9389 57° Northeast  Level Estimated
02:59AM 43.2976 86.1552 57° Northeast  Level Estimated
03:00AM 43.3998 86.3721 57° Northeast  Level Estimated
03:01AM 43.5015 86.5898 57° Northeast  Level Estimated
03:02AM 43.6028 86.8082 57° Northeast  Level Estimated
03:03AM 43.7037 87.0274 57° Northeast  Level Estimated
03:04AM 43.8042 87.2473 58° Northeast  Level Estimated
03:05AM 43.9043 87.4679 58° Northeast  Level Estimated
03:06AM 43.9071 87.4742 58° Northeast  Level Estimated
03:07AM 43.9071 87.4742 144° Southeast  Level Estimated
03:08AM 43.9071 87.4742 144° Southeast  Level Estimated
03:09AM 43.9071 87.4742 144° Southeast  Level Estimated
03:10AM 43.9071 87.4742 144° Southeast  Level Estimated
03:11AM 43.9071 87.4742 144° Southeast  Level Estimated
03:12AM 43.9071 87.4742 144° Southeast  Level Estimated
03:13AM 43.9071 87.4742 144° Southeast  Level Estimated
03:14AM 43.9071 87.4742 144° Southeast  Level Estimated
03:15AM 43.9071 87.4742 144° Southeast  Level Estimated
03:16AM 43.9071 87.4742 144° Southeast  Level Estimated
03:17AM 43.9071 87.4742 144° Southeast  Level Estimated
03:18AM 43.9071 87.4742 144° Southeast  Level Estimated
03:19AM 43.9071 87.4742 144° Southeast  Level Estimated
03:20AM 43.9071 87.4742 144° Southeast  Level Estimated
03:21AM 43.9071 87.4742 144° Southeast  Level Estimated